createdAt,value
2023-01-01T00:00:27.371Z,15.43
2023-01-01T00:01:27.329Z,15.43
2023-01-01T00:02:30.450Z,15.42
2023-01-01T00:03:27.338Z,15.41
2023-01-01T00:04:27.300Z,15.42
2023-01-01T00:05:27.283Z,15.39
2023-01-01T00:06:27.274Z,15.41
2023-01-01T00:07:27.269Z,15.39
2023-01-01T00:08:27.257Z,15.38
2023-01-01T00:09:27.242Z,15.35
2023-01-01T00:10:27.219Z,15.36
2023-01-01T00:11:27.212Z,15.42
2023-01-01T00:12:27.223Z,15.35
2023-01-01T00:13:27.325Z,15.36
2023-01-01T00:14:27.195Z,15.36
2023-01-01T00:15:27.182Z,15.38
2023-01-01T00:16:27.231Z,15.36
2023-01-01T00:17:27.167Z,15.38
2023-01-01T00:18:27.149Z,15.38
2023-01-01T00:19:27.149Z,15.41
2023-01-01T00:20:33.187Z,15.39
2023-01-01T00:21:27.104Z,15.38
2023-01-01T00:22:53.207Z,15.36
2023-01-01T00:23:27.137Z,15.33
2023-01-01T00:24:27.087Z,15.41
2023-01-01T00:25:27.051Z,15.42
2023-01-01T00:26:31.024Z,15.36
2023-01-01T00:27:27.050Z,15.39
2023-01-01T00:28:27.070Z,15.38
2023-01-01T00:29:27.042Z,15.41
2023-01-01T00:30:27.028Z,15.46
2023-01-01T00:31:27.081Z,15.52
2023-01-01T00:32:27.115Z,15.49
2023-01-01T00:33:26.980Z,15.49
2023-01-01T00:34:26.961Z,15.49
2023-01-01T00:35:27.022Z,15.45
2023-01-01T00:36:26.985Z,15.46
2023-01-01T00:37:26.948Z,15.48
2023-01-01T00:38:26.941Z,15.46
2023-01-01T00:39:26.905Z,15.43
2023-01-01T00:40:26.904Z,15.46
2023-01-01T00:41:26.889Z,15.41
2023-01-01T00:42:26.877Z,15.45
2023-01-01T00:43:26.867Z,15.41
2023-01-01T00:44:26.856Z,15.45
2023-01-01T00:45:26.846Z,15.42
2023-01-01T00:46:26.873Z,15.41
2023-01-01T00:47:26.830Z,15.41
2023-01-01T00:48:26.831Z,15.39
2023-01-01T00:49:26.796Z,15.36
2023-01-01T00:50:26.784Z,15.41
2023-01-01T00:51:29.372Z,15.35
2023-01-01T00:52:26.790Z,15.31
2023-01-01T00:53:27.618Z,15.31
2023-01-01T00:54:26.781Z,15.38
2023-01-01T00:55:26.737Z,15.41
2023-01-01T00:56:26.728Z,15.42
2023-01-01T00:57:26.729Z,15.46
2023-01-01T00:58:26.717Z,15.45
2023-01-01T00:59:28.907Z,15.45
2023-01-01T01:00:26.696Z,15.43
2023-01-01T01:01:26.751Z,15.38
2023-01-01T01:02:26.911Z,15.36
2023-01-01T01:03:26.659Z,15.35
2023-01-01T01:04:26.652Z,15.36
2023-01-01T01:05:26.615Z,15.35
2023-01-01T01:06:26.620Z,15.38
2023-01-01T01:07:26.612Z,15.38
2023-01-01T01:08:30.734Z,15.35
2023-01-01T01:09:26.620Z,15.36
2023-01-01T01:10:26.586Z,15.36
2023-01-01T01:11:26.573Z,15.38
2023-01-01T01:12:26.546Z,15.41
2023-01-01T01:13:26.541Z,15.43
2023-01-01T01:14:26.545Z,15.46
2023-01-01T01:15:26.539Z,15.43
2023-01-01T01:16:26.598Z,15.45
2023-01-01T01:17:26.491Z,15.46
2023-01-01T01:18:26.504Z,15.43
2023-01-01T01:19:26.498Z,15.42
2023-01-01T01:20:26.461Z,15.42
2023-01-01T01:21:26.466Z,15.41
2023-01-01T01:22:28.929Z,15.42
2023-01-01T01:23:26.429Z,15.43
2023-01-01T01:24:26.462Z,15.38
2023-01-01T01:25:26.406Z,15.43
2023-01-01T01:26:26.391Z,15.41
2023-01-01T01:27:26.400Z,15.41
2023-01-01T01:28:26.383Z,15.41
2023-01-01T01:29:26.387Z,15.39
2023-01-01T01:30:26.495Z,15.38
2023-01-01T01:31:26.341Z,15.38
2023-01-01T01:32:26.346Z,15.31
2023-01-01T01:33:26.318Z,15.38
2023-01-01T01:34:28.412Z,15.43
2023-01-01T01:35:26.293Z,15.42
2023-01-01T01:36:26.290Z,15.45
2023-01-01T01:37:26.279Z,15.42
2023-01-01T01:38:26.271Z,15.38
2023-01-01T01:39:26.269Z,15.36
2023-01-01T01:40:26.245Z,15.33
2023-01-01T01:41:28.252Z,15.36
2023-01-01T01:42:26.222Z,15.36
2023-01-01T01:43:26.210Z,15.42
2023-01-01T01:44:26.226Z,15.39
2023-01-01T01:45:32.998Z,15.36
2023-01-01T01:46:26.210Z,15.35
2023-01-01T01:47:26.181Z,15.39
2023-01-01T01:48:26.159Z,15.39
2023-01-01T01:49:26.163Z,15.39
2023-01-01T01:50:26.174Z,15.38
2023-01-01T01:51:26.123Z,15.39
2023-01-01T01:52:26.110Z,15.38
2023-01-01T01:53:26.107Z,15.35
2023-01-01T01:54:26.093Z,15.38
2023-01-01T01:55:26.095Z,15.35
2023-01-01T01:56:26.074Z,15.39
2023-01-01T01:57:26.068Z,15.38
2023-01-01T01:58:26.047Z,15.39
2023-01-01T01:59:26.045Z,15.39
2023-01-01T02:00:26.032Z,15.38
2023-01-01T02:01:26.146Z,15.42
2023-01-01T02:02:26.253Z,15.41
2023-01-01T02:03:26.052Z,15.41
2023-01-01T02:04:25.981Z,15.38
2023-01-01T02:05:25.976Z,15.36
2023-01-01T02:06:25.974Z,15.33
2023-01-01T02:07:25.942Z,15.36
2023-01-01T02:08:25.940Z,15.31
2023-01-01T02:09:25.931Z,15.30
2023-01-01T02:10:25.942Z,15.36
2023-01-01T02:11:25.902Z,15.39
2023-01-01T02:12:25.896Z,15.33
2023-01-01T02:13:25.878Z,15.35
2023-01-01T02:14:25.875Z,15.36
2023-01-01T02:15:25.876Z,15.35
2023-01-01T02:16:25.852Z,15.30
2023-01-01T02:17:25.836Z,15.38
2023-01-01T02:18:25.841Z,15.41
2023-01-01T02:19:25.821Z,15.42
2023-01-01T02:20:25.836Z,15.35
2023-01-01T02:21:25.810Z,15.36
2023-01-01T02:22:25.783Z,15.36
2023-01-01T02:23:25.785Z,15.36
2023-01-01T02:24:25.783Z,15.36
2023-01-01T02:25:25.751Z,15.45
2023-01-01T02:26:25.768Z,15.41
2023-01-01T02:27:32.721Z,15.42
2023-01-01T02:28:25.732Z,15.39
2023-01-01T02:29:25.731Z,15.35
2023-01-01T02:30:25.708Z,15.30
2023-01-01T02:31:25.777Z,15.33
2023-01-01T02:32:25.690Z,15.30
2023-01-01T02:33:25.718Z,15.28
2023-01-01T02:34:25.662Z,15.26
2023-01-01T02:35:25.645Z,15.26
2023-01-01T02:36:25.669Z,15.21
2023-01-01T02:37:25.638Z,15.23
2023-01-01T02:38:25.623Z,15.19
2023-01-01T02:39:25.609Z,15.17
2023-01-01T02:40:25.600Z,15.15
2023-01-01T02:41:25.598Z,15.17
2023-01-01T02:42:25.574Z,15.15
2023-01-01T02:43:25.567Z,15.19
2023-01-01T02:44:25.562Z,15.21
2023-01-01T02:45:25.528Z,15.20
2023-01-01T02:46:55.691Z,15.21
2023-01-01T02:47:56.679Z,15.11
2023-01-01T02:48:56.668Z,15.12
2023-01-01T02:49:56.666Z,15.19
2023-01-01T02:50:56.654Z,15.20
2023-01-01T02:51:56.713Z,15.20
2023-01-01T02:52:56.616Z,15.23
2023-01-01T02:53:56.612Z,15.26
2023-01-01T02:54:56.598Z,15.28
2023-01-01T02:55:56.594Z,15.27
2023-01-01T02:56:56.589Z,15.27
2023-01-01T02:57:56.574Z,15.24
2023-01-01T02:58:56.552Z,15.23
2023-01-01T02:59:56.558Z,15.20
2023-01-01T03:00:56.528Z,15.21
2023-01-01T03:01:56.667Z,15.20
2023-01-01T03:02:56.610Z,15.17
2023-01-01T03:03:56.524Z,15.17
2023-01-01T03:04:56.493Z,15.21
2023-01-01T03:05:56.501Z,15.21
2023-01-01T03:06:56.464Z,15.23
2023-01-01T03:07:56.490Z,15.26
2023-01-01T03:08:56.461Z,15.28
2023-01-01T03:09:56.447Z,15.27
2023-01-01T03:10:56.446Z,15.27
2023-01-01T03:11:56.435Z,15.27
2023-01-01T03:12:56.412Z,15.27
2023-01-01T03:13:56.402Z,15.31
2023-01-01T03:14:56.386Z,15.27
2023-01-01T03:15:56.436Z,15.21
2023-01-01T03:16:56.360Z,15.17
2023-01-01T03:17:56.361Z,15.17
2023-01-01T03:18:56.344Z,15.15
2023-01-01T03:19:56.357Z,15.12
2023-01-01T03:20:56.328Z,15.13
2023-01-01T03:21:56.304Z,15.13
2023-01-01T03:22:56.303Z,15.11
2023-01-01T03:23:56.280Z,15.08
2023-01-01T03:24:56.261Z,15.06
2023-01-01T03:25:56.258Z,15.09
2023-01-01T03:26:56.270Z,15.05
2023-01-01T03:27:56.245Z,15.06
2023-01-01T03:28:56.244Z,15.08
2023-01-01T03:29:56.224Z,15.06
2023-01-01T03:30:56.251Z,15.12
2023-01-01T03:31:56.198Z,15.09
2023-01-01T03:32:56.203Z,15.09
2023-01-01T03:33:56.176Z,15.09
2023-01-01T03:34:56.164Z,15.09
2023-01-01T03:35:56.147Z,15.06
2023-01-01T03:36:56.133Z,15.03
2023-01-01T03:37:56.149Z,15.03
2023-01-01T03:38:56.116Z,15.08
2023-01-01T03:39:56.115Z,15.02
2023-01-01T03:40:56.102Z,15.03
2023-01-01T03:41:56.081Z,15.02
2023-01-01T03:42:56.090Z,14.99
2023-01-01T03:43:56.061Z,14.93
2023-01-01T03:44:56.062Z,14.95
2023-01-01T03:45:56.071Z,14.93
2023-01-01T03:46:56.066Z,14.94
2023-01-01T03:47:56.045Z,14.99
2023-01-01T03:49:02.529Z,14.94
2023-01-01T03:49:56.016Z,14.98
2023-01-01T03:50:55.987Z,14.91
2023-01-01T03:51:55.996Z,14.87
2023-01-01T03:52:55.969Z,14.88
2023-01-01T03:53:55.957Z,14.90
2023-01-01T03:54:59.040Z,14.90
2023-01-01T03:55:55.945Z,14.87
2023-01-01T03:56:55.963Z,14.86
2023-01-01T03:57:55.919Z,14.84
2023-01-01T03:58:55.925Z,14.83
2023-01-01T03:59:55.902Z,14.83
2023-01-01T04:00:55.874Z,14.83
2023-01-01T04:01:55.985Z,14.78
2023-01-01T04:02:55.915Z,14.81
2023-01-01T04:03:55.861Z,14.80
2023-01-01T04:04:55.836Z,14.78
2023-01-01T04:05:55.833Z,14.75
2023-01-01T04:06:55.810Z,14.75
2023-01-01T04:07:55.805Z,14.78
2023-01-01T04:08:55.805Z,14.78
2023-01-01T04:09:55.795Z,14.72
2023-01-01T04:10:55.791Z,14.72
2023-01-01T04:11:55.770Z,14.78
2023-01-01T04:12:55.758Z,14.75
2023-01-01T04:13:55.753Z,14.71
2023-01-01T04:14:55.729Z,14.68
2023-01-01T04:15:55.782Z,14.71
2023-01-01T04:16:55.721Z,14.69
2023-01-01T04:17:55.705Z,14.69
2023-01-01T04:18:55.691Z,14.64
2023-01-01T04:19:55.668Z,14.67
2023-01-01T04:20:55.657Z,14.67
2023-01-01T04:21:55.653Z,14.65
2023-01-01T04:22:55.633Z,14.64
2023-01-01T04:23:55.636Z,14.62
2023-01-01T04:24:55.622Z,14.61
2023-01-01T04:25:55.615Z,14.60
2023-01-01T04:26:55.604Z,14.61
2023-01-01T04:27:55.608Z,14.62
2023-01-01T04:28:55.573Z,14.60
2023-01-01T04:29:55.575Z,14.62
2023-01-01T04:31:25.762Z,14.64
2023-01-01T04:32:26.750Z,14.64
2023-01-01T04:33:26.727Z,14.60
2023-01-01T04:34:26.727Z,14.61
2023-01-01T04:35:26.721Z,14.57
2023-01-01T04:36:26.700Z,14.52
2023-01-01T04:37:26.673Z,14.53
2023-01-01T04:38:26.665Z,14.54
2023-01-01T04:39:26.659Z,14.57
2023-01-01T04:40:26.641Z,14.60
2023-01-01T04:41:26.631Z,14.53
2023-01-01T04:42:26.653Z,14.56
2023-01-01T04:43:26.611Z,14.57
2023-01-01T04:44:26.623Z,14.54
2023-01-01T04:45:26.634Z,14.54
2023-01-01T04:46:26.596Z,14.50
2023-01-01T04:47:26.570Z,14.50
2023-01-01T04:48:26.568Z,14.50
2023-01-01T04:49:26.547Z,14.49
2023-01-01T04:50:26.536Z,14.46
2023-01-01T04:51:26.523Z,14.46
2023-01-01T04:52:26.515Z,14.44
2023-01-01T04:53:26.540Z,14.44
2023-01-01T04:54:26.516Z,14.44
2023-01-01T04:55:26.479Z,14.43
2023-01-01T04:56:26.470Z,14.46
2023-01-01T04:57:26.458Z,14.44
2023-01-01T04:58:26.454Z,14.44
2023-01-01T04:59:26.440Z,14.44
2023-01-01T05:00:26.439Z,14.46
2023-01-01T05:01:26.671Z,14.46
2023-01-01T05:02:26.651Z,14.46
2023-01-01T05:03:26.397Z,14.43
2023-01-01T05:04:26.398Z,14.39
2023-01-01T05:05:26.408Z,14.39
2023-01-01T05:06:26.376Z,14.43
2023-01-01T05:07:26.339Z,14.43
2023-01-01T05:08:26.360Z,14.44
2023-01-01T05:09:26.339Z,14.46
2023-01-01T05:10:26.332Z,14.44
2023-01-01T05:11:26.308Z,14.46
2023-01-01T05:12:26.296Z,14.42
2023-01-01T05:13:26.315Z,14.44
2023-01-01T05:14:26.283Z,14.52
2023-01-01T05:15:26.289Z,14.50
2023-01-01T05:16:26.301Z,14.49
2023-01-01T05:17:26.241Z,14.49
2023-01-01T05:18:26.223Z,14.47
2023-01-01T05:19:26.235Z,14.49
2023-01-01T05:20:26.214Z,14.49
2023-01-01T05:21:26.199Z,14.49
2023-01-01T05:22:26.189Z,14.52
2023-01-01T05:23:26.188Z,14.49
2023-01-01T05:24:26.160Z,14.52
2023-01-01T05:25:26.162Z,14.46
2023-01-01T05:26:26.158Z,14.46
2023-01-01T05:27:26.131Z,14.50
2023-01-01T05:28:26.137Z,14.47
2023-01-01T05:29:26.118Z,14.49
2023-01-01T05:30:26.108Z,14.47
2023-01-01T05:31:26.125Z,14.46
2023-01-01T05:32:26.088Z,14.46
2023-01-01T05:33:26.064Z,14.44
2023-01-01T05:34:26.072Z,14.42
2023-01-01T05:35:26.734Z,14.47
2023-01-01T05:36:26.044Z,14.47
2023-01-01T05:37:26.030Z,14.46
2023-01-01T05:38:26.012Z,14.46
2023-01-01T05:39:26.000Z,14.43
2023-01-01T05:40:26.010Z,14.47
2023-01-01T05:41:25.972Z,14.52
2023-01-01T05:42:25.970Z,14.50
2023-01-01T05:43:25.958Z,14.47
2023-01-01T05:44:25.950Z,14.49
2023-01-01T05:45:25.954Z,14.50
2023-01-01T05:46:25.942Z,14.52
2023-01-01T05:47:29.622Z,14.49
2023-01-01T05:48:25.909Z,14.47
2023-01-01T05:49:25.905Z,14.49
2023-01-01T05:50:25.909Z,14.49
2023-01-01T05:51:25.868Z,14.46
2023-01-01T05:52:26.922Z,14.50
2023-01-01T05:53:25.858Z,14.53
2023-01-01T05:54:25.840Z,14.60
2023-01-01T05:55:25.853Z,14.61
2023-01-01T05:56:25.828Z,14.62
2023-01-01T05:57:25.802Z,14.57
2023-01-01T05:58:25.790Z,14.61
2023-01-01T05:59:25.770Z,14.57
2023-01-01T06:00:25.766Z,14.61
2023-01-01T06:01:25.819Z,14.60
2023-01-01T06:02:25.829Z,14.54
2023-01-01T06:03:25.729Z,14.54
2023-01-01T06:04:25.779Z,14.52
2023-01-01T06:05:25.748Z,14.52
2023-01-01T06:06:25.734Z,14.49
2023-01-01T06:07:25.697Z,14.53
2023-01-01T06:08:25.690Z,14.50
2023-01-01T06:09:25.684Z,14.50
2023-01-01T06:10:25.659Z,14.50
2023-01-01T06:11:25.662Z,14.47
2023-01-01T06:12:25.643Z,14.47
2023-01-01T06:13:25.620Z,14.44
2023-01-01T06:14:25.645Z,14.49
2023-01-01T06:15:25.613Z,14.49
2023-01-01T06:16:25.719Z,14.46
2023-01-01T06:17:25.581Z,14.46
2023-01-01T06:18:25.588Z,14.47
2023-01-01T06:19:25.565Z,14.46
2023-01-01T06:20:25.562Z,14.46
2023-01-01T06:21:25.551Z,14.46
2023-01-01T06:22:25.526Z,14.49
2023-01-01T06:23:25.505Z,14.47
2023-01-01T06:24:25.512Z,14.52
2023-01-01T06:25:25.500Z,14.49
2023-01-01T06:26:25.543Z,14.50
2023-01-01T06:27:25.466Z,14.50
2023-01-01T06:28:25.469Z,14.52
2023-01-01T06:29:25.462Z,14.52
2023-01-01T06:30:25.471Z,14.52
2023-01-01T06:31:25.459Z,14.53
2023-01-01T06:32:25.427Z,14.52
2023-01-01T06:33:25.417Z,14.53
2023-01-01T06:34:25.403Z,14.52
2023-01-01T06:35:25.387Z,14.52
2023-01-01T06:36:25.397Z,14.56
2023-01-01T06:37:25.389Z,14.56
2023-01-01T06:38:25.367Z,14.56
2023-01-01T06:39:25.393Z,14.53
2023-01-01T06:40:25.356Z,14.54
2023-01-01T06:41:25.314Z,14.50
2023-01-01T06:42:30.372Z,14.50
2023-01-01T06:43:25.302Z,14.50
2023-01-01T06:44:25.247Z,14.49
2023-01-01T06:45:25.244Z,14.53
2023-01-01T06:46:25.310Z,14.50
2023-01-01T06:47:25.208Z,14.53
2023-01-01T06:48:25.203Z,14.47
2023-01-01T06:49:25.186Z,14.44
2023-01-01T06:50:25.170Z,14.49
2023-01-01T06:51:25.188Z,14.52
2023-01-01T06:52:25.180Z,14.50
2023-01-01T06:53:25.166Z,14.52
2023-01-01T06:54:25.124Z,14.50
2023-01-01T06:55:25.107Z,14.46
2023-01-01T06:56:25.114Z,14.50
2023-01-01T06:57:25.084Z,14.46
2023-01-01T06:58:25.087Z,14.47
2023-01-01T06:59:25.075Z,14.50
2023-01-01T07:00:25.070Z,14.46
2023-01-01T07:01:25.155Z,14.47
2023-01-01T07:02:25.256Z,14.46
2023-01-01T07:03:25.061Z,14.47
2023-01-01T07:04:25.020Z,14.44
2023-01-01T07:05:24.999Z,14.46
2023-01-01T07:06:25.015Z,14.46
2023-01-01T07:07:25.000Z,14.42
2023-01-01T07:08:24.977Z,14.39
2023-01-01T07:09:24.958Z,14.39
2023-01-01T07:10:24.938Z,14.35
2023-01-01T07:11:24.932Z,14.37
2023-01-01T07:12:24.944Z,14.35
2023-01-01T07:13:24.938Z,14.37
2023-01-01T07:14:24.921Z,14.38
2023-01-01T07:15:24.891Z,14.39
2023-01-01T07:16:25.004Z,14.43
2023-01-01T07:17:24.871Z,14.43
2023-01-01T07:18:24.898Z,14.44
2023-01-01T07:19:24.845Z,14.47
2023-01-01T07:20:24.845Z,14.49
2023-01-01T07:21:28.754Z,14.46
2023-01-01T07:22:24.817Z,14.50
2023-01-01T07:23:24.801Z,14.49
2023-01-01T07:24:24.791Z,14.50
2023-01-01T07:25:24.782Z,14.49
2023-01-01T07:26:24.798Z,14.53
2023-01-01T07:27:24.760Z,14.56
2023-01-01T07:28:24.766Z,14.56
2023-01-01T07:29:24.769Z,14.57
2023-01-01T07:30:24.742Z,14.61
2023-01-01T07:31:24.798Z,14.54
2023-01-01T07:32:24.715Z,14.56
2023-01-01T07:33:24.717Z,14.60
2023-01-01T07:34:24.693Z,14.56
2023-01-01T07:35:24.663Z,14.54
2023-01-01T07:36:24.667Z,14.49
2023-01-01T07:37:24.642Z,14.53
2023-01-01T07:38:24.665Z,14.49
2023-01-01T07:39:24.649Z,14.50
2023-01-01T07:40:24.618Z,14.50
2023-01-01T07:41:24.735Z,14.49
2023-01-01T07:42:24.600Z,14.53
2023-01-01T07:43:24.703Z,14.54
2023-01-01T07:44:24.581Z,14.60
2023-01-01T07:45:24.554Z,14.60
2023-01-01T07:46:24.762Z,14.61
2023-01-01T07:47:24.549Z,14.64
2023-01-01T07:48:24.538Z,14.62
2023-01-01T07:49:24.518Z,14.61
2023-01-01T07:50:24.517Z,14.61
2023-01-01T07:51:24.496Z,14.62
2023-01-01T07:52:24.499Z,14.61
2023-01-01T07:53:24.494Z,14.57
2023-01-01T07:54:24.483Z,14.61
2023-01-01T07:55:24.453Z,14.65
2023-01-01T07:56:24.449Z,14.61
2023-01-01T07:57:24.446Z,14.65
2023-01-01T07:58:24.453Z,14.64
2023-01-01T07:59:24.438Z,14.64
2023-01-01T08:00:24.407Z,14.60
2023-01-01T08:01:24.612Z,14.62
2023-01-01T08:02:24.485Z,14.61
2023-01-01T08:03:24.437Z,14.61
2023-01-01T08:04:24.365Z,14.57
2023-01-01T08:05:26.891Z,14.57
2023-01-01T08:06:24.359Z,14.64
2023-01-01T08:07:24.348Z,14.65
2023-01-01T08:08:24.338Z,14.67
2023-01-01T08:09:24.328Z,14.68
2023-01-01T08:10:24.316Z,14.67
2023-01-01T08:11:24.300Z,14.74
2023-01-01T08:12:24.273Z,14.69
2023-01-01T08:13:24.292Z,14.67
2023-01-01T08:14:24.250Z,14.69
2023-01-01T08:15:24.239Z,14.67
2023-01-01T08:16:24.300Z,14.69
2023-01-01T08:17:24.218Z,14.67
2023-01-01T08:18:24.200Z,14.68
2023-01-01T08:19:24.241Z,14.71
2023-01-01T08:20:24.189Z,14.69
2023-01-01T08:21:24.186Z,14.71
2023-01-01T08:22:24.171Z,14.68
2023-01-01T08:23:24.173Z,14.71
2023-01-01T08:24:24.161Z,14.74
2023-01-01T08:25:24.116Z,14.75
2023-01-01T08:26:24.113Z,14.74
2023-01-01T08:27:24.103Z,14.74
2023-01-01T08:28:24.101Z,14.74
2023-01-01T08:29:24.095Z,14.72
2023-01-01T08:30:24.129Z,14.74
2023-01-01T08:31:24.120Z,14.74
2023-01-01T08:32:24.053Z,14.74
2023-01-01T08:33:24.051Z,14.72
2023-01-01T08:34:24.103Z,14.72
2023-01-01T08:35:24.013Z,14.75
2023-01-01T08:36:24.016Z,14.80
2023-01-01T08:37:24.003Z,14.84
2023-01-01T08:38:24.018Z,14.84
2023-01-01T08:39:24.006Z,14.84
2023-01-01T08:40:24.031Z,14.83
2023-01-01T08:41:23.943Z,14.80
2023-01-01T08:42:23.964Z,14.81
2023-01-01T08:43:23.929Z,14.83
2023-01-01T08:44:23.951Z,14.88
2023-01-01T08:45:23.922Z,14.90
2023-01-01T08:46:23.971Z,14.88
2023-01-01T08:47:23.895Z,14.88
2023-01-01T08:48:28.867Z,14.88
2023-01-01T08:49:24.282Z,14.90
2023-01-01T08:50:23.862Z,14.90
2023-01-01T08:51:23.852Z,14.94
2023-01-01T08:52:23.875Z,14.90
2023-01-01T08:53:23.817Z,14.93
2023-01-01T08:54:23.800Z,14.90
2023-01-01T08:55:23.807Z,14.87
2023-01-01T08:56:23.789Z,14.88
2023-01-01T08:57:23.780Z,14.90
2023-01-01T08:58:23.806Z,14.91
2023-01-01T08:59:23.760Z,14.90
2023-01-01T09:00:23.756Z,14.90
2023-01-01T09:01:23.843Z,14.90
2023-01-01T09:02:23.864Z,14.91
2023-01-01T09:03:23.899Z,14.91
2023-01-01T09:04:23.691Z,14.88
2023-01-01T09:05:23.705Z,14.90
2023-01-01T09:06:23.679Z,14.90
2023-01-01T09:07:23.693Z,14.88
2023-01-01T09:08:23.697Z,14.87
2023-01-01T09:09:29.273Z,14.87
2023-01-01T09:10:23.696Z,14.86
2023-01-01T09:11:23.647Z,14.87
2023-01-01T09:12:23.667Z,14.84
2023-01-01T09:13:23.637Z,14.88
2023-01-01T09:14:23.637Z,14.88
2023-01-01T09:15:23.594Z,14.90
2023-01-01T09:16:23.674Z,14.90
2023-01-01T09:17:23.584Z,14.87
2023-01-01T09:18:23.541Z,14.87
2023-01-01T09:19:23.551Z,14.87
2023-01-01T09:20:23.555Z,14.87
2023-01-01T09:21:23.523Z,14.86
2023-01-01T09:22:23.498Z,14.84
2023-01-01T09:23:23.492Z,14.87
2023-01-01T09:24:23.484Z,14.86
2023-01-01T09:25:23.501Z,14.86
2023-01-01T09:26:23.456Z,14.88
2023-01-01T09:27:23.511Z,14.87
2023-01-01T09:28:25.883Z,14.86
2023-01-01T09:29:23.433Z,14.87
2023-01-01T09:30:23.454Z,14.90
2023-01-01T09:31:23.591Z,14.88
2023-01-01T09:32:23.392Z,14.88
2023-01-01T09:33:23.430Z,14.91
2023-01-01T09:34:23.364Z,14.88
2023-01-01T09:35:23.366Z,14.88
2023-01-01T09:36:23.351Z,14.90
2023-01-01T09:37:23.345Z,14.91
2023-01-01T09:38:23.331Z,14.88
2023-01-01T09:39:23.313Z,14.87
2023-01-01T09:40:23.300Z,14.93
2023-01-01T09:41:23.391Z,14.94
2023-01-01T09:42:23.298Z,14.95
2023-01-01T09:43:23.297Z,14.98
2023-01-01T09:44:23.270Z,15.01
2023-01-01T09:45:23.279Z,15.02
2023-01-01T09:46:29.574Z,15.06
2023-01-01T09:47:23.271Z,15.08
2023-01-01T09:48:23.224Z,15.09
2023-01-01T09:49:23.234Z,15.12
2023-01-01T09:50:23.217Z,15.09
2023-01-01T09:51:23.209Z,15.11
2023-01-01T09:52:23.195Z,15.17
2023-01-01T09:53:23.198Z,15.15
2023-01-01T09:54:23.168Z,15.21
2023-01-01T09:55:23.166Z,15.27
2023-01-01T09:56:23.148Z,15.26
2023-01-01T09:57:23.224Z,15.30
2023-01-01T09:58:23.118Z,15.33
2023-01-01T09:59:23.103Z,15.38
2023-01-01T10:00:23.108Z,15.45
2023-01-01T10:01:23.385Z,15.43
2023-01-01T10:02:23.116Z,15.46
2023-01-01T10:03:23.073Z,15.48
2023-01-01T10:04:23.089Z,15.48
2023-01-01T10:05:23.055Z,15.48
2023-01-01T10:06:23.035Z,15.51
2023-01-01T10:07:23.017Z,15.61
2023-01-01T10:08:23.738Z,15.64
2023-01-01T10:09:22.998Z,15.63
2023-01-01T10:10:22.987Z,15.70
2023-01-01T10:11:23.012Z,15.74
2023-01-01T10:12:22.956Z,15.78
2023-01-01T10:13:22.952Z,15.68
2023-01-01T10:14:22.927Z,15.67
2023-01-01T10:15:22.923Z,15.67
2023-01-01T10:16:25.006Z,15.63
2023-01-01T10:17:22.923Z,15.61
2023-01-01T10:18:22.891Z,15.59
2023-01-01T10:19:22.890Z,15.56
2023-01-01T10:20:22.886Z,15.56
2023-01-01T10:21:22.872Z,15.59
2023-01-01T10:22:22.863Z,15.54
2023-01-01T10:23:22.864Z,15.64
2023-01-01T10:24:22.834Z,15.60
2023-01-01T10:25:22.832Z,15.61
2023-01-01T10:26:22.810Z,15.64
2023-01-01T10:27:22.823Z,15.64
2023-01-01T10:28:22.795Z,15.61
2023-01-01T10:29:22.795Z,15.59
2023-01-01T10:30:22.901Z,15.60
2023-01-01T10:31:22.803Z,15.60
2023-01-01T10:32:22.749Z,15.57
2023-01-01T10:33:22.758Z,15.59
2023-01-01T10:34:22.724Z,15.56
2023-01-01T10:35:28.339Z,15.59
2023-01-01T10:36:22.698Z,15.59
2023-01-01T10:37:22.700Z,15.59
2023-01-01T10:38:22.694Z,15.61
2023-01-01T10:39:22.685Z,15.59
2023-01-01T10:40:22.751Z,15.57
2023-01-01T10:41:22.673Z,15.60
2023-01-01T10:42:22.649Z,15.60
2023-01-01T10:43:22.622Z,15.59
2023-01-01T10:44:22.628Z,15.63
2023-01-01T10:45:22.654Z,15.61
2023-01-01T10:46:27.599Z,15.59
2023-01-01T10:47:22.618Z,15.60
2023-01-01T10:48:22.645Z,15.59
2023-01-01T10:49:22.602Z,15.60
2023-01-01T10:50:22.557Z,15.59
2023-01-01T10:51:22.568Z,15.57
2023-01-01T10:52:22.527Z,15.59
2023-01-01T10:53:22.557Z,15.56
2023-01-01T10:54:27.879Z,15.57
2023-01-01T10:55:22.575Z,15.56
2023-01-01T10:56:22.493Z,15.52
2023-01-01T10:57:22.473Z,15.56
2023-01-01T10:58:22.499Z,15.59
2023-01-01T10:59:22.471Z,15.60
2023-01-01T11:00:22.452Z,15.60
2023-01-01T11:01:22.603Z,15.59
2023-01-01T11:02:22.672Z,15.60
2023-01-01T11:03:22.479Z,15.67
2023-01-01T11:04:22.427Z,15.63
2023-01-01T11:05:22.878Z,15.66
2023-01-01T11:06:23.273Z,15.64
2023-01-01T11:07:25.425Z,15.63
2023-01-01T11:08:23.285Z,15.64
2023-01-01T11:09:22.353Z,15.64
2023-01-01T11:10:22.338Z,15.64
2023-01-01T11:11:22.320Z,15.67
2023-01-01T11:12:54.646Z,15.64
2023-01-01T11:13:22.333Z,15.64
2023-01-01T11:14:22.321Z,15.64
2023-01-01T11:15:22.300Z,15.66
2023-01-01T11:16:22.329Z,15.66
2023-01-01T11:17:22.254Z,15.66
2023-01-01T11:18:22.338Z,15.66
2023-01-01T11:19:22.226Z,15.64
2023-01-01T11:20:22.284Z,15.70
2023-01-01T11:21:22.486Z,15.68
2023-01-01T11:22:22.257Z,15.70
2023-01-01T11:23:22.448Z,15.70
2023-01-01T11:24:22.284Z,15.66
2023-01-01T11:25:22.186Z,15.66
2023-01-01T11:26:22.162Z,15.68
2023-01-01T11:27:22.169Z,15.67
2023-01-01T11:28:22.132Z,15.64
2023-01-01T11:29:22.126Z,15.61
2023-01-01T11:30:22.139Z,15.64
2023-01-01T11:31:22.130Z,15.61
2023-01-01T11:32:23.080Z,15.60
2023-01-01T11:33:22.105Z,15.66
2023-01-01T11:34:22.057Z,15.67
2023-01-01T11:35:22.061Z,15.64
2023-01-01T11:36:22.054Z,15.66
2023-01-01T11:37:22.049Z,15.70
2023-01-01T11:38:27.561Z,15.70
2023-01-01T11:39:22.033Z,15.75
2023-01-01T11:40:22.005Z,15.76
2023-01-01T11:41:22.071Z,15.81
2023-01-01T11:42:22.003Z,15.81
2023-01-01T11:43:22.959Z,15.85
2023-01-01T11:44:23.029Z,15.88
2023-01-01T11:45:23.261Z,15.88
2023-01-01T11:46:21.976Z,15.96
2023-01-01T11:47:21.958Z,15.97
2023-01-01T11:48:21.931Z,16.00
2023-01-01T11:49:21.913Z,15.99
2023-01-01T11:50:21.896Z,15.96
2023-01-01T11:51:21.901Z,15.99
2023-01-01T11:52:21.871Z,16.00
2023-01-01T11:53:21.869Z,15.97
2023-01-01T11:54:21.842Z,16.01
2023-01-01T11:55:21.876Z,16.03
2023-01-01T11:56:21.835Z,16.07
2023-01-01T11:57:21.821Z,16.07
2023-01-01T11:58:21.809Z,16.11
2023-01-01T11:59:21.823Z,16.03
2023-01-01T12:00:21.814Z,16.01
2023-01-01T12:01:21.855Z,16.00
2023-01-01T12:02:21.804Z,16.01
2023-01-01T12:03:21.796Z,16.01
2023-01-01T12:04:21.822Z,15.97
2023-01-01T12:05:21.740Z,15.97
2023-01-01T12:06:21.769Z,15.96
2023-01-01T12:07:21.744Z,15.97
2023-01-01T12:08:21.755Z,15.93
2023-01-01T12:09:21.731Z,15.94
2023-01-01T12:10:21.695Z,15.92
2023-01-01T12:11:21.688Z,15.94
2023-01-01T12:12:21.696Z,15.97
2023-01-01T12:13:21.641Z,15.99
2023-01-01T12:14:21.649Z,15.99
2023-01-01T12:15:21.607Z,16.00
2023-01-01T12:16:21.671Z,16.01
2023-01-01T12:17:21.614Z,16.00
2023-01-01T12:18:21.601Z,16.00
2023-01-01T12:19:21.599Z,15.99
2023-01-01T12:20:21.589Z,15.99
2023-01-01T12:21:21.650Z,15.97
2023-01-01T12:22:21.574Z,15.97
2023-01-01T12:23:21.549Z,15.99
2023-01-01T12:24:21.519Z,15.94
2023-01-01T12:25:21.547Z,15.96
2023-01-01T12:26:21.506Z,15.94
2023-01-01T12:27:21.534Z,15.94
2023-01-01T12:28:21.481Z,15.94
2023-01-01T12:29:21.472Z,15.92
2023-01-01T12:30:21.476Z,15.89
2023-01-01T12:31:21.492Z,15.89
2023-01-01T12:32:21.431Z,15.92
2023-01-01T12:33:21.467Z,15.94
2023-01-01T12:34:21.419Z,15.92
2023-01-01T12:35:21.426Z,15.93
2023-01-01T12:36:21.397Z,15.89
2023-01-01T12:37:21.381Z,15.93
2023-01-01T12:38:21.378Z,15.89
2023-01-01T12:39:21.415Z,15.89
2023-01-01T12:40:24.818Z,15.85
2023-01-01T12:41:21.348Z,15.88
2023-01-01T12:42:21.338Z,15.85
2023-01-01T12:43:21.306Z,15.85
2023-01-01T12:44:21.320Z,15.81
2023-01-01T12:45:24.444Z,15.82
2023-01-01T12:46:21.329Z,15.79
2023-01-01T12:47:21.284Z,15.82
2023-01-01T12:48:21.300Z,15.85
2023-01-01T12:49:21.261Z,15.85
2023-01-01T12:50:21.261Z,15.79
2023-01-01T12:51:21.263Z,15.82
2023-01-01T12:52:21.219Z,15.81
2023-01-01T12:53:21.205Z,15.78